Eastern, Kentucky
Current Conditions -  °F | °C
As of 1:35 AM on Wednesday 26 Nov 2014 (Local Time) from KPBX Reporting Station
Clear Clear  
Wind Chill: 35°   Ceiling: Unl
Heat Index: 40°   Visibility: 10mi
Dew Point: 28°   Wind: 7mph
Humidity: 63%   Direction: 360°N
Pressure: 30.07"   Gusts: NA
Location:  37.52°N, 82.81°W
Report Text: KPBX 260635Z AUTO 36006KT 10SM CLR 05/M02 A3007 RMK AO2 T00451020
Loading
Personal Weather Stations






























Interactive Weather Map New forecast layout! Learn more

10-Day Weather Forecast

Advertisements
Track Severe Weather on mobile